Aviation Digital Data Service (ADDS)

Output produced by METARs form (2350 UTC 23 May 2022)
found at http://www.aviationweather.gov/metar/data/
 
TAF MKJP 232315Z 2400/2424 13015KT 9999 FEW022 
     BECMG 2402/2404 35008KT 
     BECMG 2414/2416 13022KT
       
TAF MKJS 232315Z 2400/2424 08010KT 9999 FEW024 
     BECMG 2401/2403 16005KT 
     BECMG 2414/2416 06015KT 
     PROB30 
     TEMPO 2418/2424 SCT020 SCT034